createdAt,value
2016-04-05T00:00:08.824Z,0
2016-04-05T00:01:08.842Z,0
2016-04-05T00:02:08.844Z,0
2016-04-05T00:03:08.847Z,0
2016-04-05T00:04:08.850Z,0
2016-04-05T00:05:08.869Z,0
2016-04-05T00:06:08.887Z,0
2016-04-05T00:07:23.063Z,0
2016-04-05T00:08:08.908Z,0
2016-04-05T00:09:08.896Z,0
2016-04-05T00:10:08.913Z,0
2016-04-05T00:11:08.948Z,0
2016-04-05T00:12:08.919Z,0
2016-04-05T00:13:08.203Z,0
2016-04-05T00:14:08.940Z,0
2016-04-05T00:15:08.942Z,0
2016-04-05T00:16:08.976Z,0
2016-04-05T00:17:08.964Z,0
2016-04-05T00:18:08.997Z,0
2016-04-05T00:19:08.970Z,0
2016-04-05T00:20:08.862Z,0
2016-04-05T00:21:08.975Z,0
2016-04-05T00:22:08.993Z,0
2016-04-05T00:23:08.995Z,0
2016-04-05T00:24:08.998Z,0
2016-04-05T00:25:09.016Z,0
2016-04-05T00:26:09.019Z,0
2016-04-05T00:27:09.022Z,0
2016-04-05T00:28:09.040Z,0
2016-04-05T00:29:09.043Z,0
2016-04-05T00:30:09.045Z,0
2016-04-05T00:31:09.064Z,0
2016-04-05T00:32:09.067Z,0
2016-04-05T00:33:09.070Z,0
2016-04-05T00:34:09.103Z,0
2016-04-05T00:35:09.091Z,0
2016-04-05T00:36:09.093Z,0
2016-04-05T00:37:09.814Z,0
2016-04-05T00:38:09.113Z,0
2016-04-05T00:39:09.132Z,0
2016-04-05T00:40:09.182Z,0
2016-04-05T00:41:09.122Z,0
2016-04-05T00:42:09.172Z,0
2016-04-05T00:43:09.143Z,0
2016-04-05T00:44:09.162Z,0
2016-04-05T00:45:09.164Z,0
2016-04-05T00:46:09.167Z,0
2016-04-05T00:47:09.201Z,0
2016-04-05T00:48:09.172Z,0
2016-04-05T00:49:09.206Z,0
2016-04-05T00:50:09.255Z,0
2016-04-05T00:51:09.211Z,0
2016-04-05T00:52:09.214Z,0
2016-04-05T00:53:09.216Z,0
2016-04-05T00:54:09.235Z,0
2016-04-05T00:55:09.269Z,0
2016-04-05T00:56:09.256Z,0
2016-04-05T00:57:09.243Z,0
2016-04-05T00:58:09.277Z,0
2016-04-05T00:59:09.264Z,0
2016-04-05T01:00:09.282Z,0
2016-04-05T01:01:09.285Z,0
2016-04-05T01:02:09.288Z,0
2016-04-05T01:03:09.291Z,0
2016-04-05T01:04:09.309Z,0
2016-04-05T01:05:09.312Z,0
2016-04-05T01:06:09.314Z,0
2016-04-05T01:07:09.333Z,0
2016-04-05T01:08:09.335Z,0
2016-04-05T01:09:09.354Z,0
2016-04-05T01:10:09.357Z,0
2016-04-05T01:11:09.359Z,0
2016-04-05T01:12:09.362Z,0
2016-04-05T01:13:09.364Z,0
2016-04-05T01:14:09.382Z,0
2016-04-05T01:15:09.370Z,0
2016-04-05T01:16:09.387Z,0
2016-04-05T01:17:09.406Z,0
2016-04-05T01:18:09.409Z,0
2016-04-05T01:19:09.412Z,0
2016-04-05T01:20:09.415Z,0
2016-04-05T01:21:09.417Z,0
2016-04-05T01:22:09.420Z,0
2016-04-05T01:23:09.453Z,0
2016-04-05T01:24:09.440Z,0
2016-04-05T01:25:09.459Z,0
2016-04-05T01:26:09.461Z,0
2016-04-05T01:27:09.448Z,0
2016-04-05T01:28:09.467Z,0
2016-04-05T01:29:09.500Z,0
2016-04-05T01:30:09.503Z,0
2016-04-05T01:31:09.491Z,0
2016-04-05T01:32:09.494Z,0
2016-04-05T01:33:09.528Z,0
2016-04-05T01:34:09.514Z,0
2016-04-05T01:35:09.533Z,0
2016-04-05T01:36:09.535Z,0
2016-04-05T01:37:09.538Z,0
2016-04-05T01:38:09.541Z,0
2016-04-05T01:39:09.559Z,0
2016-04-05T01:40:09.563Z,0
2016-04-05T01:41:09.565Z,0
2016-04-05T01:42:09.583Z,0
2016-04-05T01:43:09.586Z,0
2016-04-05T01:44:09.588Z,0
2016-04-05T01:45:09.607Z,0
2016-04-05T01:46:09.708Z,0
2016-04-05T01:47:09.514Z,0
2016-04-05T01:48:09.610Z,0
2016-04-05T01:49:09.753Z,0
2016-04-05T01:50:09.654Z,0
2016-04-05T01:51:09.640Z,0
2016-04-05T01:52:09.643Z,0
2016-04-05T01:53:09.662Z,0
2016-04-05T01:54:09.664Z,0
2016-04-05T01:55:09.668Z,0
2016-04-05T01:56:09.670Z,0
2016-04-05T01:57:09.689Z,0
2016-04-05T01:58:09.675Z,0
2016-04-05T01:59:09.709Z,0
2016-04-05T02:00:09.790Z,0
2016-04-05T02:01:09.715Z,0
2016-04-05T02:02:09.733Z,0
2016-04-05T02:03:09.736Z,0
2016-04-05T02:04:09.754Z,0
2016-04-05T02:05:09.742Z,0
2016-04-05T02:06:09.760Z,0
2016-04-05T02:07:09.762Z,0
2016-04-05T02:08:09.770Z,0
2016-04-05T02:09:09.773Z,0
2016-04-05T02:10:09.775Z,0
2016-04-05T02:11:09.794Z,0
2016-04-05T02:12:09.796Z,0
2016-04-05T02:13:09.799Z,0
2016-04-05T02:14:09.818Z,0
2016-04-05T02:15:09.820Z,0
2016-04-05T02:16:09.823Z,0
2016-04-05T02:17:09.856Z,0
2016-04-05T02:18:09.828Z,0
2016-04-05T02:19:09.846Z,0
2016-04-05T02:20:09.865Z,0
2016-04-05T02:21:09.852Z,0
2016-04-05T02:22:09.870Z,0
2016-04-05T02:23:09.873Z,0
2016-04-05T02:24:09.876Z,0
2016-04-05T02:25:09.893Z,0
2016-04-05T02:26:09.896Z,0
2016-04-05T02:27:09.898Z,0
2016-04-05T02:28:09.917Z,0
2016-04-05T02:29:09.920Z,0
2016-04-05T02:30:09.922Z,0
2016-04-05T02:31:09.942Z,0
2016-04-05T02:32:09.928Z,0
2016-04-05T02:33:09.947Z,0
2016-04-05T02:34:09.949Z,0
2016-04-05T02:35:09.952Z,0
2016-04-05T02:36:09.986Z,0
2016-04-05T02:37:09.973Z,0
2016-04-05T02:38:09.991Z,0
2016-04-05T02:39:09.978Z,0
2016-04-05T02:40:09.996Z,0
2016-04-05T02:41:09.843Z,0
2016-04-05T02:42:10.018Z,0
2016-04-05T02:43:10.020Z,0
2016-04-05T02:44:10.024Z,0
2016-04-05T02:45:10.040Z,0
2016-04-05T02:46:10.030Z,0
2016-04-05T02:47:10.020Z,0
2016-04-05T02:48:10.010Z,0
2016-04-05T02:49:10.031Z,0
2016-04-05T02:50:10.021Z,0
2016-04-05T02:51:10.020Z,0
2016-04-05T02:52:10.003Z,0
2016-04-05T02:53:10.360Z,0
2016-04-05T02:54:10.014Z,0
2016-04-05T02:55:10.029Z,0
2016-04-05T02:56:10.014Z,0
2016-04-05T02:57:10.047Z,0
2016-04-05T02:58:10.032Z,0
2016-04-05T02:59:10.049Z,0
2016-04-05T03:00:09.800Z,0
2016-04-05T03:01:10.083Z,0
2016-04-05T03:02:10.069Z,0
2016-04-05T03:03:10.087Z,0
2016-04-05T03:04:10.370Z,0
2016-04-05T03:05:10.091Z,0
2016-04-05T03:06:09.938Z,0
2016-04-05T03:07:10.096Z,0
2016-04-05T03:08:10.099Z,0
2016-04-05T03:09:10.102Z,0
2016-04-05T03:10:10.121Z,0
2016-04-05T03:11:10.124Z,0
2016-04-05T03:12:10.126Z,0
2016-04-05T03:13:10.504Z,0
2016-04-05T03:14:10.163Z,0
2016-04-05T03:15:10.305Z,0
2016-04-05T03:16:10.465Z,0
2016-04-05T03:17:10.233Z,0
2016-04-05T03:18:10.157Z,0
2016-04-05T03:19:10.191Z,0
2016-04-05T03:20:10.193Z,0
2016-04-05T03:21:10.337Z,0
2016-04-05T03:22:10.199Z,0
2016-04-05T03:23:10.218Z,0
2016-04-05T03:24:10.267Z,0
2016-04-05T03:25:10.223Z,0
2016-04-05T03:26:10.242Z,0
2016-04-05T03:27:10.557Z,0
2016-04-05T03:28:10.247Z,0
2016-04-05T03:29:10.250Z,0
2016-04-05T03:30:10.487Z,0
2016-04-05T03:31:10.349Z,0
2016-04-05T03:32:10.274Z,0
2016-04-05T03:33:10.276Z,0
2016-04-05T03:34:10.295Z,0
2016-04-05T03:35:10.298Z,0
2016-04-05T03:36:10.297Z,0
2016-04-05T03:37:10.300Z,0
2016-04-05T03:38:10.255Z,0
2016-04-05T03:39:10.509Z,0
2016-04-05T03:40:10.308Z,0
2016-04-05T03:41:10.389Z,0
2016-04-05T03:42:10.641Z,0
2016-04-05T03:43:10.347Z,0
2016-04-05T03:44:10.350Z,0
2016-04-05T03:45:10.228Z,0
2016-04-05T03:46:10.668Z,0
2016-04-05T03:47:10.468Z,0
2016-04-05T03:48:10.393Z,0
2016-04-05T03:49:10.739Z,0
2016-04-05T03:50:10.382Z,0
2016-04-05T03:51:10.401Z,0
2016-04-05T03:52:10.465Z,0
2016-04-05T03:53:10.765Z,0
2016-04-05T03:54:10.424Z,0
2016-04-05T03:55:10.427Z,0
2016-04-05T03:56:10.633Z,0
2016-04-05T03:57:10.588Z,0
2016-04-05T03:58:10.482Z,0
2016-04-05T03:59:10.468Z,0
2016-04-05T04:00:10.581Z,0
2016-04-05T04:01:10.317Z,0
2016-04-05T04:02:10.476Z,0
2016-04-05T04:03:10.495Z,0
2016-04-05T04:04:10.544Z,0
2016-04-05T04:05:10.500Z,0
2016-04-05T04:06:10.503Z,0
2016-04-05T04:07:10.506Z,0
2016-04-05T04:08:10.540Z,0
2016-04-05T04:09:10.527Z,0
2016-04-05T04:10:10.686Z,0
2016-04-05T04:11:10.548Z,0
2016-04-05T04:12:10.598Z,0
2016-04-05T04:13:10.553Z,0
2016-04-05T04:14:10.572Z,0
2016-04-05T04:15:10.808Z,0
2016-04-05T04:16:10.718Z,0
2016-04-05T04:17:10.674Z,0
2016-04-05T04:18:10.598Z,0
2016-04-05T04:19:10.585Z,0
2016-04-05T04:20:10.822Z,0
2016-04-05T04:21:10.606Z,0
2016-04-05T04:22:10.968Z,0
2016-04-05T04:23:10.626Z,0
2016-04-05T04:24:24.848Z,0
2016-04-05T04:25:10.648Z,0
2016-04-05T04:26:10.635Z,0
2016-04-05T04:27:10.654Z,0
2016-04-05T04:28:10.656Z,0
2016-04-05T04:29:10.659Z,0
2016-04-05T04:30:10.801Z,0
2016-04-05T04:31:10.695Z,0
2016-04-05T04:32:10.682Z,4
2016-04-05T04:33:11.014Z,4
2016-04-05T04:34:10.688Z,4
2016-04-05T04:35:10.815Z,4
2016-04-05T04:36:10.724Z,0
2016-04-05T04:37:10.931Z,4
2016-04-05T04:38:10.730Z,4
2016-04-05T04:39:10.733Z,8
2016-04-05T04:40:10.736Z,8
2016-04-05T04:41:10.738Z,4
2016-04-05T04:42:11.022Z,8
2016-04-05T04:43:10.775Z,12
2016-04-05T04:44:11.089Z,8
2016-04-05T04:45:11.186Z,12
2016-04-05T04:46:10.799Z,12
2016-04-05T04:47:11.036Z,12
2016-04-05T04:48:10.819Z,12
2016-04-05T04:49:10.822Z,16
2016-04-05T04:50:11.152Z,16
2016-04-05T04:51:10.812Z,20
2016-04-05T04:52:11.127Z,24
2016-04-05T04:53:11.035Z,24
2016-04-05T04:54:10.836Z,24
2016-04-05T04:55:10.838Z,24
2016-04-05T04:56:10.887Z,28
2016-04-05T04:57:10.875Z,28
2016-04-05T04:58:10.877Z,32
2016-04-05T04:59:10.880Z,36
2016-04-05T05:00:11.648Z,40
2016-04-05T05:01:10.901Z,40
2016-04-05T05:02:10.920Z,40
2016-04-05T05:03:10.906Z,48
2016-04-05T05:04:11.268Z,48
2016-04-05T05:05:11.162Z,48
2016-04-05T05:06:10.914Z,52
2016-04-05T05:07:10.933Z,56
2016-04-05T05:08:11.092Z,60
2016-04-05T05:09:10.954Z,64
2016-04-05T05:10:10.956Z,64
2016-04-05T05:11:10.975Z,68
2016-04-05T05:12:10.962Z,72
2016-04-05T05:13:10.824Z,72
2016-04-05T05:14:11.092Z,76
2016-04-05T05:15:10.923Z,76
2016-04-05T05:16:10.989Z,80
2016-04-05T05:17:11.194Z,88
2016-04-05T05:18:11.024Z,88
2016-04-05T05:19:11.028Z,92
2016-04-05T05:20:11.077Z,92
2016-04-05T05:21:11.329Z,96
2016-04-05T05:22:11.036Z,100
2016-04-05T05:23:11.163Z,100
2016-04-05T05:24:11.244Z,100
2016-04-05T05:25:11.060Z,108
2016-04-05T05:26:11.265Z,112
2016-04-05T05:27:11.049Z,116
2016-04-05T05:28:11.287Z,120
2016-04-05T05:29:11.086Z,120
2016-04-05T05:30:11.370Z,124
2016-04-05T05:31:11.357Z,128
2016-04-05T05:32:11.109Z,128
2016-04-05T05:33:11.128Z,132
2016-04-05T05:34:11.131Z,140
2016-04-05T05:35:11.148Z,144
2016-04-05T05:36:11.183Z,144
2016-04-05T05:37:11.154Z,144
2016-04-05T05:38:11.156Z,148
2016-04-05T05:39:11.160Z,148
2016-04-05T05:40:11.162Z,152
2016-04-05T05:41:11.164Z,156
2016-04-05T05:42:11.168Z,160
2016-04-05T05:43:11.202Z,160
2016-04-05T05:44:11.236Z,164
2016-04-05T05:45:11.270Z,168
2016-04-05T05:46:11.194Z,168
2016-04-05T05:47:11.353Z,176
2016-04-05T05:48:11.215Z,176
2016-04-05T05:49:11.233Z,180
2016-04-05T05:50:11.235Z,180
2016-04-05T05:51:11.238Z,184
2016-04-05T05:52:11.241Z,184
2016-04-05T05:53:11.244Z,192
2016-04-05T05:54:11.263Z,192
2016-04-05T05:55:11.280Z,188
2016-04-05T05:56:11.268Z,200
2016-04-05T05:57:11.271Z,208
2016-04-05T05:58:11.288Z,220
2016-04-05T05:59:11.307Z,228
2016-04-05T06:00:11.310Z,232
2016-04-05T06:01:11.297Z,232
2016-04-05T06:02:11.315Z,236
2016-04-05T06:03:11.333Z,240
2016-04-05T06:04:11.337Z,244
2016-04-05T06:05:11.323Z,252
2016-04-05T06:06:11.341Z,260
2016-04-05T06:07:11.345Z,264
2016-04-05T06:08:11.347Z,272
2016-04-05T06:09:11.365Z,280
2016-04-05T06:10:11.368Z,284
2016-04-05T06:11:11.386Z,284
2016-04-05T06:12:11.389Z,288
2016-04-05T06:13:11.392Z,284
2016-04-05T06:14:11.394Z,280
2016-04-05T06:15:11.413Z,280
2016-04-05T06:16:11.416Z,272
2016-04-05T06:17:11.418Z,276
2016-04-05T06:18:11.421Z,276
2016-04-05T06:19:11.439Z,276
2016-04-05T06:20:11.441Z,272
2016-04-05T06:21:11.444Z,276
2016-04-05T06:22:11.447Z,284
2016-04-05T06:23:11.466Z,292
2016-04-05T06:24:11.469Z,288
2016-04-05T06:25:11.471Z,288
2016-04-05T06:26:11.488Z,288
2016-04-05T06:27:11.508Z,296
2016-04-05T06:28:11.494Z,288
2016-04-05T06:29:11.496Z,292
2016-04-05T06:30:11.532Z,304
2016-04-05T06:31:11.518Z,316
2016-04-05T06:32:11.521Z,328
2016-04-05T06:33:11.523Z,336
2016-04-05T06:34:11.526Z,344
2016-04-05T06:35:11.545Z,348
2016-04-05T06:36:11.547Z,348
2016-04-05T06:37:11.565Z,360
2016-04-05T06:38:11.584Z,356
2016-04-05T06:39:11.603Z,376
2016-04-05T06:40:11.605Z,380
2016-04-05T06:41:11.608Z,380
2016-04-05T06:42:11.611Z,376
2016-04-05T06:43:11.613Z,372
2016-04-05T06:44:11.616Z,348
2016-04-05T06:45:11.634Z,336
2016-04-05T06:46:11.622Z,320
2016-04-05T06:47:11.639Z,312
2016-04-05T06:48:11.641Z,304
2016-04-05T06:49:11.645Z,300
2016-04-05T06:50:11.663Z,308
2016-04-05T06:51:11.650Z,316
2016-04-05T06:52:11.669Z,320
2016-04-05T06:53:11.686Z,336
2016-04-05T06:54:11.689Z,348
2016-04-05T06:55:11.692Z,368
2016-04-05T06:56:11.694Z,384
2016-04-05T06:57:11.713Z,400
2016-04-05T06:58:11.560Z,412
2016-04-05T06:59:11.734Z,420
2016-04-05T07:00:11.721Z,424
2016-04-05T07:01:11.740Z,428
2016-04-05T07:02:11.742Z,424
2016-04-05T07:03:11.760Z,424
2016-04-05T07:04:11.763Z,432
2016-04-05T07:05:11.750Z,436
2016-04-05T07:06:11.753Z,436
2016-04-05T07:07:11.787Z,444
2016-04-05T07:08:11.885Z,444
2016-04-05T07:09:11.778Z,444
2016-04-05T07:10:11.797Z,440
2016-04-05T07:11:11.783Z,436
2016-04-05T07:12:11.833Z,440
2016-04-05T07:13:11.820Z,448
2016-04-05T07:14:11.823Z,460
2016-04-05T07:15:11.841Z,472
2016-04-05T07:16:11.844Z,484
2016-04-05T07:17:11.863Z,500
2016-04-05T07:18:11.850Z,508
2016-04-05T07:19:11.852Z,504
2016-04-05T07:20:11.871Z,516
2016-04-05T07:21:11.905Z,500
2016-04-05T07:22:11.876Z,500
2016-04-05T07:23:11.894Z,484
2016-04-05T07:24:11.897Z,492
2016-04-05T07:25:11.899Z,472
2016-04-05T07:26:11.918Z,476
2016-04-05T07:27:11.920Z,488
2016-04-05T07:28:11.939Z,492
2016-04-05T07:29:11.942Z,488
2016-04-05T07:30:11.944Z,496
2016-04-05T07:31:11.948Z,500
2016-04-05T07:32:11.950Z,492
2016-04-05T07:33:11.967Z,480
2016-04-05T07:34:11.970Z,472
2016-04-05T07:35:11.973Z,492
2016-04-05T07:36:11.976Z,476
2016-04-05T07:37:12.009Z,492
2016-04-05T07:38:12.013Z,500
2016-04-05T07:39:12.031Z,516
2016-04-05T07:40:12.002Z,512
2016-04-05T07:41:12.020Z,504
2016-04-05T07:42:12.023Z,520
2016-04-05T07:43:12.042Z,532
2016-04-05T07:44:12.044Z,544
2016-04-05T07:45:12.063Z,496
2016-04-05T07:46:12.066Z,504
2016-04-05T07:47:12.052Z,512
2016-04-05T07:48:12.071Z,504
2016-04-05T07:49:12.074Z,508
2016-04-05T07:50:12.077Z,504
2016-04-05T07:51:12.094Z,488
2016-04-05T07:52:12.097Z,484
2016-04-05T07:53:12.116Z,480
2016-04-05T07:54:12.102Z,476
2016-04-05T07:55:12.121Z,492
2016-04-05T07:56:11.968Z,496
2016-04-05T07:57:12.142Z,496
2016-04-05T07:58:12.145Z,508
2016-04-05T07:59:12.163Z,508
2016-04-05T08:00:12.150Z,516
2016-04-05T08:01:12.153Z,528
2016-04-05T08:02:12.186Z,540
2016-04-05T08:03:12.190Z,516
2016-04-05T08:04:12.192Z,544
2016-04-05T08:05:12.179Z,532
2016-04-05T08:06:12.182Z,524
2016-04-05T08:07:12.215Z,532
2016-04-05T08:08:12.234Z,544
2016-04-05T08:09:12.237Z,548
2016-04-05T08:10:12.255Z,556
2016-04-05T08:11:12.258Z,572
2016-04-05T08:12:12.260Z,592
2016-04-05T08:13:12.279Z,612
2016-04-05T08:14:12.250Z,612
2016-04-05T08:15:12.269Z,624
2016-04-05T08:16:12.271Z,608
2016-04-05T08:17:12.274Z,616
2016-04-05T08:18:12.292Z,600
2016-04-05T08:19:12.294Z,604
2016-04-05T08:20:12.314Z,596
2016-04-05T08:21:12.300Z,592
2016-04-05T08:22:12.318Z,588
2016-04-05T08:23:12.337Z,564
2016-04-05T08:24:12.339Z,568
2016-04-05T08:25:12.343Z,588
2016-04-05T08:26:12.345Z,576
2016-04-05T08:27:12.348Z,564
2016-04-05T08:28:12.366Z,620
2016-04-05T08:29:12.384Z,644
2016-04-05T08:30:12.387Z,664
2016-04-05T08:31:12.390Z,680
2016-04-05T08:32:12.392Z,700
2016-04-05T08:33:12.426Z,724
2016-04-05T08:34:12.413Z,740
2016-04-05T08:35:12.416Z,740
2016-04-05T08:36:12.434Z,728
2016-04-05T08:37:12.437Z,732
2016-04-05T08:38:12.439Z,724
2016-04-05T08:39:12.442Z,708
2016-04-05T08:40:12.445Z,696
2016-04-05T08:41:12.447Z,656
2016-04-05T08:42:12.467Z,672
2016-04-05T08:43:12.469Z,696
2016-04-05T08:44:12.486Z,736
2016-04-05T08:45:12.505Z,740
2016-04-05T08:46:12.508Z,740
2016-04-05T08:47:12.527Z,760
2016-04-05T08:48:12.529Z,772
2016-04-05T08:49:12.517Z,784
2016-04-05T08:50:12.550Z,784
2016-04-05T08:51:12.537Z,780
2016-04-05T08:52:12.555Z,768
2016-04-05T08:53:12.573Z,764
2016-04-05T08:54:12.561Z,776
2016-04-05T08:55:12.579Z,820
2016-04-05T08:56:12.582Z,840
2016-04-05T08:57:12.585Z,848
2016-04-05T08:58:12.587Z,860
2016-04-05T08:59:12.605Z,856
2016-04-05T09:00:12.608Z,856
2016-04-05T09:01:12.610Z,844
2016-04-05T09:02:12.629Z,864
2016-04-05T09:03:12.632Z,880
2016-04-05T09:04:12.635Z,912
2016-04-05T09:05:12.637Z,916
2016-04-05T09:06:12.656Z,920
2016-04-05T09:07:12.658Z,940
2016-04-05T09:08:12.661Z,932
2016-04-05T09:09:12.664Z,924
2016-04-05T09:10:12.686Z,908
2016-04-05T09:11:12.706Z,960
2016-04-05T09:12:12.708Z,980
2016-04-05T09:13:12.711Z,980
2016-04-05T09:14:12.713Z,964
2016-04-05T09:15:12.716Z,960
2016-04-05T09:16:12.750Z,952
2016-04-05T09:17:12.768Z,952
2016-04-05T09:18:12.786Z,968
2016-04-05T09:19:12.758Z,960
2016-04-05T09:20:12.777Z,968
2016-04-05T09:21:12.872Z,956
2016-04-05T09:22:12.797Z,952
2016-04-05T09:23:12.785Z,980
2016-04-05T09:24:12.818Z,980
2016-04-05T09:25:12.805Z,984
2016-04-05T09:26:12.823Z,1036
2016-04-05T09:27:12.827Z,1044
2016-04-05T09:28:12.829Z,1048
2016-04-05T09:29:12.816Z,1060
2016-04-05T09:30:12.834Z,1060
2016-04-05T09:31:13.009Z,1104
2016-04-05T09:32:12.856Z,1128
2016-04-05T09:33:12.858Z,1116
2016-04-05T09:34:12.876Z,1160
2016-04-05T09:35:12.895Z,1168
2016-04-05T09:36:13.070Z,1188
2016-04-05T09:37:12.901Z,1184
2016-04-05T09:38:12.918Z,1160
2016-04-05T09:39:13.125Z,1180
2016-04-05T09:40:12.908Z,1180
2016-04-05T09:41:12.942Z,1144
2016-04-05T09:42:12.928Z,1168
2016-04-05T09:43:12.964Z,1160
2016-04-05T09:44:12.950Z,1168
2016-04-05T09:45:12.968Z,1104
2016-04-05T09:46:13.174Z,1100
2016-04-05T09:47:12.974Z,1104
2016-04-05T09:48:12.991Z,1124
2016-04-05T09:49:13.026Z,1100
2016-04-05T09:50:12.998Z,1088
2016-04-05T09:51:13.032Z,1128
2016-04-05T09:52:13.018Z,1144
2016-04-05T09:53:13.022Z,1180
2016-04-05T09:54:27.211Z,1108
2016-04-05T09:55:13.058Z,1068
2016-04-05T09:56:13.076Z,1028
2016-04-05T09:57:13.063Z,992
2016-04-05T09:58:13.097Z,1028
2016-04-05T09:59:13.099Z,1008
2016-04-05T10:00:13.087Z,1036
2016-04-05T10:01:13.120Z,1168
2016-04-05T10:02:13.093Z,1196
2016-04-05T10:03:13.110Z,1188
2016-04-05T10:04:13.113Z,1212
2016-04-05T10:05:13.131Z,1212
2016-04-05T10:06:13.150Z,1208
2016-04-05T10:07:13.136Z,1200
2016-04-05T10:08:13.155Z,1228
2016-04-05T10:09:13.158Z,1252
2016-04-05T10:10:13.175Z,1204
2016-04-05T10:11:13.194Z,1188
2016-04-05T10:12:13.197Z,1220
2016-04-05T10:13:13.231Z,1212
2016-04-05T10:14:13.234Z,1236
2016-04-05T10:15:13.222Z,1224
2016-04-05T10:16:13.099Z,1164
2016-04-05T10:17:13.227Z,1176
2016-04-05T10:18:13.261Z,1120
2016-04-05T10:19:13.263Z,1092
2016-04-05T10:20:13.266Z,1080
2016-04-05T10:21:13.268Z,1104
2016-04-05T10:22:13.255Z,1088
2016-04-05T10:23:13.258Z,1048
2016-04-05T10:24:13.260Z,1040
2016-04-05T10:25:13.280Z,1024
2016-04-05T10:26:13.297Z,996
2016-04-05T10:27:13.316Z,1000
2016-04-05T10:28:13.319Z,992
2016-04-05T10:29:13.321Z,972
2016-04-05T10:30:13.324Z,952
2016-04-05T10:31:13.373Z,928
2016-04-05T10:32:13.360Z,916
2016-04-05T10:33:13.363Z,936
2016-04-05T10:34:13.382Z,952
2016-04-05T10:35:13.384Z,976
2016-04-05T10:36:13.387Z,1000
2016-04-05T10:37:13.405Z,1020
2016-04-05T10:38:13.408Z,1012
2016-04-05T10:39:13.426Z,980
2016-04-05T10:40:13.428Z,940
2016-04-05T10:41:13.431Z,908
2016-04-05T10:42:13.434Z,888
2016-04-05T10:43:13.436Z,868
2016-04-05T10:44:13.440Z,852
2016-04-05T10:45:13.442Z,820
2016-04-05T10:46:13.180Z,784
2016-04-05T10:47:13.463Z,740
2016-04-05T10:48:13.481Z,700
2016-04-05T10:49:13.500Z,688
2016-04-05T10:50:13.486Z,696
2016-04-05T10:51:13.505Z,732
2016-04-05T10:52:13.508Z,772
2016-04-05T10:53:13.541Z,820
2016-04-05T10:54:13.529Z,872
2016-04-05T10:55:13.546Z,932
2016-04-05T10:56:13.550Z,996
2016-04-05T10:57:13.552Z,1072
2016-04-05T10:58:13.555Z,1148
2016-04-05T10:59:13.574Z,1224
2016-04-05T11:00:12.843Z,1320
2016-04-05T11:01:13.610Z,1492
2016-04-05T11:02:13.613Z,1524
2016-04-05T11:03:13.615Z,1532
2016-04-05T11:04:13.604Z,1500
2016-04-05T11:05:13.637Z,1624
2016-04-05T11:06:13.624Z,1592
2016-04-05T11:07:13.643Z,1460
2016-04-05T11:08:13.495Z,1192
2016-04-05T11:09:13.489Z,1192
2016-04-05T11:10:13.664Z,1076
2016-04-05T11:11:13.667Z,1276
2016-04-05T11:12:13.669Z,1320
2016-04-05T11:13:13.672Z,1352
2016-04-05T11:14:13.690Z,1420
2016-04-05T11:15:13.709Z,1364
2016-04-05T11:16:13.712Z,1452
2016-04-05T11:17:13.558Z,1424
2016-04-05T11:18:13.717Z,1260
2016-04-05T11:19:13.720Z,1272
2016-04-05T11:20:13.737Z,1416
2016-04-05T11:21:13.756Z,1620
2016-04-05T11:22:13.775Z,1684
2016-04-05T11:23:13.793Z,1592
2016-04-05T11:24:13.780Z,1388
2016-04-05T11:25:13.782Z,1264
2016-04-05T11:26:13.785Z,1220
2016-04-05T11:27:13.866Z,1212
2016-04-05T11:28:13.806Z,1204
2016-04-05T11:29:13.825Z,1144
2016-04-05T11:30:13.811Z,1036
2016-04-05T11:31:13.846Z,976
2016-04-05T11:32:13.849Z,948
2016-04-05T11:33:13.866Z,944
2016-04-05T11:34:13.869Z,896
2016-04-05T11:35:13.888Z,864
2016-04-05T11:36:13.874Z,848
2016-04-05T11:37:13.877Z,808
2016-04-05T11:38:13.895Z,776
2016-04-05T11:39:13.898Z,752
2016-04-05T11:40:13.901Z,736
2016-04-05T11:41:13.184Z,744
2016-04-05T11:42:13.937Z,744
2016-04-05T11:43:13.955Z,760
2016-04-05T11:44:13.958Z,768
2016-04-05T11:45:13.945Z,784
2016-04-05T11:46:13.963Z,796
2016-04-05T11:47:13.967Z,796
2016-04-05T11:48:13.969Z,800
2016-04-05T11:49:14.019Z,804
2016-04-05T11:50:14.021Z,800
2016-04-05T11:51:14.006Z,792
2016-04-05T11:52:14.032Z,776
2016-04-05T11:53:13.994Z,768
2016-04-05T11:54:14.004Z,772
2016-04-05T11:55:13.998Z,784
2016-04-05T11:56:13.993Z,800
2016-04-05T11:57:14.008Z,816
2016-04-05T11:58:14.023Z,824
2016-04-05T11:59:14.037Z,816
2016-04-05T12:00:13.304Z,784
2016-04-05T12:01:13.881Z,764
2016-04-05T12:02:14.039Z,748
2016-04-05T12:03:14.041Z,732
2016-04-05T12:04:14.058Z,712
2016-04-05T12:05:14.090Z,680
2016-04-05T12:06:14.078Z,644
2016-04-05T12:07:14.080Z,616
2016-04-05T12:08:14.082Z,600
2016-04-05T12:09:14.099Z,596
2016-04-05T12:10:14.101Z,596
2016-04-05T12:11:14.104Z,620
2016-04-05T12:12:14.123Z,640
2016-04-05T12:13:14.109Z,652
2016-04-05T12:14:14.144Z,680
2016-04-05T12:15:14.147Z,720
2016-04-05T12:16:14.164Z,752
2016-04-05T12:17:14.152Z,796
2016-04-05T12:18:14.170Z,836
2016-04-05T12:19:14.173Z,896
2016-04-05T12:20:14.191Z,1004
2016-04-05T12:21:14.194Z,1128
2016-04-05T12:22:14.211Z,1244
2016-04-05T12:23:14.214Z,1392
2016-04-05T12:24:14.217Z,1416
2016-04-05T12:25:14.236Z,1328
2016-04-05T12:26:14.238Z,1256
2016-04-05T12:27:14.241Z,1236
2016-04-05T12:28:14.259Z,1288
2016-04-05T12:29:14.263Z,1340
2016-04-05T12:30:14.249Z,1340
2016-04-05T12:31:14.283Z,1388
2016-04-05T12:32:14.285Z,1512
2016-04-05T12:33:14.288Z,1452
2016-04-05T12:34:14.306Z,1084
2016-04-05T12:35:14.309Z,964
2016-04-05T12:36:14.328Z,916
2016-04-05T12:37:14.331Z,800
2016-04-05T12:38:14.334Z,700
2016-04-05T12:39:14.352Z,640
2016-04-05T12:40:14.354Z,636
2016-04-05T12:41:14.356Z,656
2016-04-05T12:42:14.375Z,668
2016-04-05T12:43:14.378Z,672
2016-04-05T12:44:14.381Z,692
2016-04-05T12:45:14.399Z,720
2016-04-05T12:46:28.573Z,760
2016-04-05T12:47:14.403Z,788
2016-04-05T12:48:14.423Z,844
2016-04-05T12:49:14.426Z,936
2016-04-05T12:50:14.428Z,984
2016-04-05T12:51:14.447Z,1004
2016-04-05T12:52:14.465Z,1052
2016-04-05T12:53:14.483Z,1120
2016-04-05T12:54:14.517Z,1132
2016-04-05T12:55:14.488Z,1120
2016-04-05T12:56:14.522Z,1044
2016-04-05T12:57:14.524Z,1040
2016-04-05T12:58:14.559Z,1076
2016-04-05T12:59:14.390Z,1144
2016-04-05T13:00:14.548Z,1228
2016-04-05T13:01:14.535Z,1180
2016-04-05T13:02:14.538Z,1164
2016-04-05T13:03:14.556Z,1184
2016-04-05T13:04:14.559Z,1192
2016-04-05T13:05:14.577Z,1268
2016-04-05T13:06:14.564Z,1124
2016-04-05T13:07:14.567Z,1140
2016-04-05T13:08:14.602Z,1084
2016-04-05T13:09:14.620Z,1060
2016-04-05T13:10:14.607Z,1040
2016-04-05T13:11:14.625Z,1012
2016-04-05T13:12:14.612Z,1008
2016-04-05T13:13:14.646Z,1072
2016-04-05T13:14:14.665Z,1044
2016-04-05T13:15:14.651Z,944
2016-04-05T13:16:14.653Z,920
2016-04-05T13:17:14.657Z,944
2016-04-05T13:18:14.675Z,948
2016-04-05T13:19:14.678Z,948
2016-04-05T13:20:14.696Z,1004
2016-04-05T13:21:14.699Z,1036
2016-04-05T13:22:14.702Z,960
2016-04-05T13:23:14.720Z,940
2016-04-05T13:24:14.722Z,940
2016-04-05T13:25:14.741Z,920
2016-04-05T13:26:14.743Z,936
2016-04-05T13:27:14.762Z,916
2016-04-05T13:28:14.764Z,908
2016-04-05T13:29:14.782Z,908
2016-04-05T13:30:14.785Z,908
2016-04-05T13:31:14.772Z,924
2016-04-05T13:32:14.791Z,964
2016-04-05T13:33:14.810Z,1032
2016-04-05T13:34:14.812Z,1100
2016-04-05T13:35:14.815Z,1224
2016-04-05T13:36:14.833Z,1228
2016-04-05T13:37:14.820Z,1136
2016-04-05T13:38:14.854Z,1068
2016-04-05T13:39:14.872Z,1100
2016-04-05T13:40:29.032Z,1104
2016-04-05T13:41:15.424Z,1100
2016-04-05T13:42:14.881Z,1224
2016-04-05T13:43:14.898Z,1372
2016-04-05T13:44:14.886Z,1428
2016-04-05T13:45:14.935Z,1316
2016-04-05T13:46:14.907Z,1232
2016-04-05T13:47:14.926Z,1304
2016-04-05T13:48:14.928Z,1432
2016-04-05T13:49:14.946Z,1344
2016-04-05T13:50:14.948Z,1260
2016-04-05T13:51:14.967Z,1200
2016-04-05T13:52:14.953Z,1232
2016-04-05T13:53:14.973Z,1196
2016-04-05T13:54:14.975Z,1128
2016-04-05T13:55:14.994Z,1048
2016-04-05T13:56:14.996Z,1012
2016-04-05T13:57:14.842Z,924
2016-04-05T13:58:15.017Z,888
2016-04-05T13:59:15.051Z,844
2016-04-05T14:00:15.038Z,784
2016-04-05T14:01:15.041Z,744